createdAt,value
2018-05-21T00:01:04.141Z,15.40
2018-05-21T00:03:31.641Z,15.30
2018-05-21T00:05:59.166Z,15.30
2018-05-21T00:08:26.665Z,15.30
2018-05-21T00:10:54.185Z,15.40
2018-05-21T00:13:21.691Z,15.40
2018-05-21T00:15:49.218Z,15.30
2018-05-21T00:18:16.718Z,15.30
2018-05-21T00:20:45.054Z,15.30
2018-05-21T00:23:12.554Z,15.30
2018-05-21T00:25:40.849Z,15.20
2018-05-21T00:28:08.361Z,15.20
2018-05-21T00:30:35.884Z,15.20
2018-05-21T00:33:03.390Z,15.30
2018-05-21T00:35:31.681Z,15.10
2018-05-21T00:37:59.185Z,15.10
2018-05-21T00:40:26.689Z,15.10
2018-05-21T00:42:54.221Z,15.00
2018-05-21T00:45:21.732Z,15.00
2018-05-21T00:47:49.266Z,15.10
2018-05-21T00:50:16.904Z,15.10
2018-05-21T00:52:44.373Z,15.00
2018-05-21T00:55:23.754Z,15.10
2018-05-21T00:57:51.282Z,15.20
2018-05-21T01:00:18.830Z,15.30
2018-05-21T01:02:46.358Z,15.20
2018-05-21T01:05:14.625Z,15.20
2018-05-21T01:07:42.940Z,15.30
2018-05-21T01:10:10.480Z,15.30
2018-05-21T01:12:38.015Z,15.20
2018-05-21T01:15:06.291Z,15.40
2018-05-21T01:17:34.587Z,15.40
2018-05-21T01:20:02.160Z,15.40
2018-05-21T01:22:29.695Z,15.40
2018-05-21T01:24:57.205Z,15.20
2018-05-21T01:27:24.778Z,15.20
2018-05-21T01:29:52.278Z,15.10
2018-05-21T01:32:19.818Z,15.20
2018-05-21T01:34:47.358Z,15.00
2018-05-21T01:37:15.713Z,14.80
2018-05-21T01:39:43.226Z,14.80
2018-05-21T01:42:10.766Z,14.80
2018-05-21T01:44:38.287Z,14.90
2018-05-21T01:47:05.835Z,14.80
2018-05-21T01:49:33.342Z,14.80
2018-05-21T01:52:00.846Z,15.00
2018-05-21T01:54:28.398Z,15.20
2018-05-21T01:56:55.910Z,15.10
2018-05-21T01:59:23.447Z,15.10
2018-05-21T02:01:51.724Z,15.10
2018-05-21T02:04:19.263Z,15.00
2018-05-21T02:06:47.544Z,15.30
2018-05-21T02:09:15.842Z,15.10
2018-05-21T02:11:43.367Z,15.10
2018-05-21T02:14:11.661Z,15.00
2018-05-21T02:16:39.202Z,15.00
2018-05-21T02:19:07.533Z,15.00
2018-05-21T02:21:35.037Z,15.00
2018-05-21T02:24:03.338Z,14.90
2018-05-21T02:26:30.849Z,14.90
2018-05-21T02:28:58.383Z,14.90
2018-05-21T02:31:25.890Z,14.90
2018-05-21T02:33:53.453Z,14.90
2018-05-21T02:36:20.973Z,14.80
2018-05-21T02:38:49.287Z,14.70
2018-05-21T02:41:16.807Z,14.70
2018-05-21T02:43:45.130Z,14.80
2018-05-21T02:46:12.638Z,14.80
2018-05-21T02:48:40.165Z,14.90
2018-05-21T02:51:07.674Z,14.80
2018-05-21T02:53:35.209Z,14.90
2018-05-21T02:56:03.493Z,14.80
2018-05-21T02:58:31.796Z,14.60
2018-05-21T03:00:59.334Z,14.60
2018-05-21T03:03:26.851Z,14.60
2018-05-21T03:05:54.390Z,14.50
2018-05-21T03:08:21.899Z,14.50
2018-05-21T03:10:49.430Z,14.30
2018-05-21T03:13:17.005Z,14.30
2018-05-21T03:15:45.297Z,14.20
2018-05-21T03:18:12.803Z,14.10
2018-05-21T03:20:40.341Z,14.10
2018-05-21T03:23:07.849Z,14.20
2018-05-21T03:25:36.142Z,14.10
2018-05-21T03:28:03.650Z,14.10
2018-05-21T03:30:31.195Z,14.10
2018-05-21T03:32:58.740Z,14.20
2018-05-21T03:35:26.282Z,14.20
2018-05-21T03:37:53.810Z,14.50
2018-05-21T03:40:21.345Z,14.60
2018-05-21T03:42:49.122Z,14.60
2018-05-21T03:45:17.418Z,14.80
2018-05-21T03:47:44.926Z,14.80
2018-05-21T03:50:12.450Z,14.90
2018-05-21T03:52:39.959Z,14.80
2018-05-21T03:55:08.258Z,14.80
2018-05-21T03:57:35.784Z,14.80
2018-05-21T04:00:16.005Z,15.10
2018-05-21T04:02:55.358Z,15.00
2018-05-21T04:05:22.891Z,15.10
2018-05-21T04:07:50.394Z,15.00
2018-05-21T04:10:18.685Z,15.10
2018-05-21T04:12:46.189Z,15.10
2018-05-21T04:15:13.717Z,15.10
2018-05-21T04:17:41.220Z,15.10
2018-05-21T04:20:08.727Z,15.20
2018-05-21T04:22:36.259Z,15.20
2018-05-21T04:25:04.238Z,15.20
2018-05-21T04:27:34.339Z,15.40
2018-05-21T04:30:02.241Z,15.50
2018-05-21T04:32:30.990Z,15.40
2018-05-21T04:34:58.547Z,15.40
2018-05-21T04:37:26.073Z,15.50
2018-05-21T04:39:53.574Z,15.40
2018-05-21T04:42:21.106Z,15.60
2018-05-21T04:44:49.373Z,15.80
2018-05-21T04:47:17.670Z,15.80
2018-05-21T04:49:45.183Z,15.80
2018-05-21T04:52:12.718Z,15.80
2018-05-21T04:54:40.218Z,15.90
2018-05-21T04:57:08.525Z,15.90
2018-05-21T04:59:36.034Z,15.90
2018-05-21T05:02:04.336Z,16.00
2018-05-21T05:04:31.842Z,15.90
2018-05-21T05:06:59.374Z,16.00
2018-05-21T05:09:26.883Z,16.10
2018-05-21T05:11:55.191Z,16.10
2018-05-21T05:14:22.702Z,16.10
2018-05-21T05:16:50.234Z,16.10
2018-05-21T05:19:17.734Z,16.00
2018-05-21T05:21:46.039Z,16.20
2018-05-21T05:24:13.556Z,16.10
2018-05-21T05:26:41.913Z,16.30
2018-05-21T05:29:09.396Z,16.30
2018-05-21T05:31:37.672Z,16.60
2018-05-21T05:34:05.210Z,16.60
2018-05-21T05:36:33.483Z,16.80
2018-05-21T05:39:01.789Z,16.80
2018-05-21T05:41:29.298Z,16.80
2018-05-21T05:43:56.831Z,16.90
2018-05-21T05:46:24.339Z,17.00
2018-05-21T05:48:52.687Z,17.10
2018-05-21T05:51:20.168Z,17.10
2018-05-21T05:53:48.458Z,17.30
2018-05-21T05:56:15.966Z,17.30
2018-05-21T05:58:43.498Z,17.40
2018-05-21T06:01:11.001Z,17.50
2018-05-21T06:03:39.384Z,17.60
2018-05-21T06:06:06.831Z,17.60
2018-05-21T06:08:35.126Z,17.90
2018-05-21T06:11:02.633Z,17.90
2018-05-21T06:13:30.167Z,18.00
2018-05-21T06:15:57.670Z,18.20
2018-05-21T06:18:25.966Z,18.40
2018-05-21T06:20:53.469Z,18.30
2018-05-21T06:23:21.005Z,18.50
2018-05-21T06:25:48.525Z,18.60
2018-05-21T06:28:16.037Z,18.70
2018-05-21T06:30:43.566Z,18.90
2018-05-21T06:33:11.078Z,18.90
2018-05-21T06:35:39.378Z,18.90
2018-05-21T06:38:06.884Z,18.80
2018-05-21T06:40:34.421Z,19.10
2018-05-21T06:43:01.937Z,19.20
2018-05-21T06:45:29.470Z,19.40
2018-05-21T06:47:56.980Z,19.50
2018-05-21T06:50:24.509Z,19.60
2018-05-21T06:52:52.018Z,19.80
2018-05-21T06:55:19.550Z,19.90
2018-05-21T06:57:47.079Z,20.00
2018-05-21T07:00:14.603Z,19.90
2018-05-21T07:02:42.107Z,19.80
2018-05-21T07:05:09.634Z,19.90
2018-05-21T07:07:37.914Z,20.10
2018-05-21T07:10:05.457Z,20.10
2018-05-21T07:12:33.730Z,20.40
2018-05-21T07:15:02.026Z,20.60
2018-05-21T07:17:29.530Z,20.60
2018-05-21T07:19:57.061Z,20.80
2018-05-21T07:22:24.575Z,20.80
2018-05-21T07:24:52.878Z,21.10
2018-05-21T07:27:20.391Z,21.00
2018-05-21T07:29:47.923Z,21.30
2018-05-21T07:32:15.430Z,21.50
2018-05-21T07:34:42.950Z,21.80
2018-05-21T07:37:10.481Z,21.60
2018-05-21T07:39:37.990Z,21.10
2018-05-21T07:42:06.287Z,21.10
2018-05-21T07:44:34.307Z,21.00
2018-05-21T07:47:02.709Z,21.00
2018-05-21T07:49:31.605Z,20.90
2018-05-21T07:51:59.649Z,20.90
2018-05-21T07:54:27.938Z,21.00
2018-05-21T07:56:56.238Z,21.10
2018-05-21T07:59:23.746Z,21.10
2018-05-21T08:01:51.273Z,21.50
2018-05-21T08:04:18.787Z,21.70
2018-05-21T08:06:46.327Z,21.90
2018-05-21T08:09:14.611Z,22.10
2018-05-21T08:11:42.906Z,22.30
2018-05-21T08:14:10.411Z,22.30
2018-05-21T08:16:37.941Z,22.50
2018-05-21T08:19:05.448Z,22.50
2018-05-21T08:21:33.738Z,22.90
2018-05-21T08:24:01.249Z,22.80
2018-05-21T08:26:28.790Z,23.00
2018-05-21T08:28:56.301Z,23.20
2018-05-21T08:31:23.836Z,23.00
2018-05-21T08:33:52.114Z,22.80
2018-05-21T08:36:20.415Z,22.80
2018-05-21T08:38:47.922Z,22.80
2018-05-21T08:41:15.453Z,22.80
2018-05-21T08:43:42.978Z,22.70
2018-05-21T08:46:10.486Z,22.90
2018-05-21T08:48:38.038Z,23.10
2018-05-21T08:51:05.551Z,22.80
2018-05-21T08:53:33.074Z,22.90
2018-05-21T08:56:01.363Z,22.90
2018-05-21T08:58:29.654Z,23.10
2018-05-21T09:00:57.166Z,23.10
2018-05-21T09:03:24.702Z,23.30
2018-05-21T09:05:52.227Z,23.50
2018-05-21T09:08:19.759Z,23.70
2018-05-21T09:10:48.035Z,24.00
2018-05-21T09:13:16.328Z,23.80
2018-05-21T09:15:43.841Z,23.70
2018-05-21T09:18:11.414Z,23.90
2018-05-21T09:20:39.691Z,24.00
2018-05-21T09:23:07.986Z,24.00
2018-05-21T09:25:35.495Z,24.00
2018-05-21T09:28:03.031Z,24.00
2018-05-21T09:30:30.533Z,24.00
2018-05-21T09:32:58.831Z,24.10
2018-05-21T09:35:26.338Z,24.00
2018-05-21T09:37:53.871Z,24.20
2018-05-21T09:40:21.390Z,24.20
2018-05-21T09:42:48.918Z,24.10
2018-05-21T09:45:16.432Z,24.20
2018-05-21T09:47:43.946Z,24.40
2018-05-21T09:50:12.243Z,24.70
2018-05-21T09:52:39.755Z,24.70
2018-05-21T09:55:07.366Z,24.80
2018-05-21T09:57:34.889Z,24.80
2018-05-21T10:00:03.187Z,25.00
2018-05-21T10:02:30.699Z,25.00
2018-05-21T10:04:58.227Z,25.10
2018-05-21T10:07:25.738Z,24.80
2018-05-21T10:09:53.291Z,24.60
2018-05-21T10:12:21.571Z,24.80
2018-05-21T10:14:49.099Z,24.80
2018-05-21T10:17:16.603Z,25.00
2018-05-21T10:19:44.206Z,24.80
2018-05-21T10:22:12.014Z,24.90
2018-05-21T10:24:39.550Z,25.00
2018-05-21T10:27:07.821Z,25.30
2018-05-21T10:29:36.122Z,25.40
2018-05-21T10:32:03.633Z,25.40
2018-05-21T10:34:31.174Z,25.30
2018-05-21T10:36:58.758Z,25.50
2018-05-21T10:39:26.244Z,25.60
2018-05-21T10:41:53.761Z,25.60
2018-05-21T10:44:21.292Z,25.70
2018-05-21T10:46:49.603Z,26.30
2018-05-21T10:49:17.117Z,26.30
2018-05-21T10:51:44.630Z,26.30
2018-05-21T10:54:12.161Z,26.30
2018-05-21T10:56:39.671Z,26.10
2018-05-21T10:59:07.212Z,26.10
2018-05-21T11:01:34.716Z,26.20
2018-05-21T11:04:03.031Z,25.80
2018-05-21T11:06:30.539Z,25.80
2018-05-21T11:08:58.074Z,26.20
2018-05-21T11:11:25.582Z,26.10
2018-05-21T11:13:53.891Z,26.40
2018-05-21T11:16:21.398Z,26.30
2018-05-21T11:18:48.935Z,26.30
2018-05-21T11:21:16.446Z,26.50
2018-05-21T11:23:43.978Z,26.70
2018-05-21T11:26:12.254Z,26.40
2018-05-21T11:28:40.550Z,26.70
2018-05-21T11:31:08.060Z,26.70
2018-05-21T11:33:35.590Z,26.70
2018-05-21T11:36:03.104Z,26.80
2018-05-21T11:38:32.134Z,27.10
2018-05-21T11:40:59.645Z,27.10
2018-05-21T11:43:27.941Z,26.70
2018-05-21T11:45:55.454Z,26.70
2018-05-21T11:48:22.992Z,26.60
2018-05-21T11:50:50.713Z,26.50
2018-05-21T11:53:18.239Z,26.80
2018-05-21T11:55:46.541Z,27.00
2018-05-21T11:58:14.046Z,26.90
2018-05-21T12:00:41.577Z,27.20
2018-05-21T12:03:09.087Z,27.20
2018-05-21T12:05:37.387Z,26.80
2018-05-21T12:08:04.898Z,26.80
2018-05-21T12:10:32.435Z,27.00
2018-05-21T12:12:59.947Z,27.00
2018-05-21T12:15:27.473Z,27.00
2018-05-21T12:17:54.978Z,27.10
2018-05-21T12:20:22.557Z,27.10
2018-05-21T12:22:50.071Z,27.00
2018-05-21T12:25:17.599Z,26.90
2018-05-21T12:27:45.102Z,26.70
2018-05-21T12:30:12.627Z,26.80
2018-05-21T12:32:40.898Z,27.30
2018-05-21T12:35:09.190Z,27.60
2018-05-21T12:37:36.702Z,27.60
2018-05-21T12:40:04.243Z,27.70
2018-05-21T12:42:31.765Z,27.70
2018-05-21T12:44:59.297Z,27.90
2018-05-21T12:47:27.565Z,27.90
2018-05-21T12:49:55.863Z,28.20
2018-05-21T12:52:23.372Z,28.20
2018-05-21T12:54:50.900Z,28.30
2018-05-21T12:57:18.402Z,28.30
2018-05-21T12:59:46.704Z,27.90
2018-05-21T13:02:14.222Z,27.90
2018-05-21T13:04:41.747Z,27.90
2018-05-21T13:07:09.254Z,27.90
2018-05-21T13:09:37.555Z,27.50
2018-05-21T13:12:05.062Z,27.50
2018-05-21T13:14:32.605Z,27.40
2018-05-21T13:17:00.117Z,27.40
2018-05-21T13:19:27.645Z,27.60
2018-05-21T13:21:55.923Z,27.20
2018-05-21T13:24:24.318Z,27.30
2018-05-21T13:26:51.749Z,27.20
2018-05-21T13:29:20.054Z,27.30
2018-05-21T13:31:47.568Z,27.30
2018-05-21T13:34:15.093Z,27.70
2018-05-21T13:36:42.605Z,27.90
2018-05-21T13:39:10.155Z,27.80
2018-05-21T13:41:38.421Z,27.90
2018-05-21T13:44:06.727Z,27.60
2018-05-21T13:46:34.243Z,27.60
2018-05-21T13:49:02.547Z,27.90
2018-05-21T13:51:30.051Z,27.90
2018-05-21T13:53:57.586Z,28.10
2018-05-21T13:56:25.090Z,28.30
2018-05-21T13:58:53.445Z,28.10
2018-05-21T14:01:20.922Z,28.10
2018-05-21T14:03:49.198Z,27.70
2018-05-21T14:06:17.499Z,27.70
2018-05-21T14:08:45.002Z,27.70
2018-05-21T14:11:12.536Z,27.60
2018-05-21T14:13:40.045Z,27.50
2018-05-21T14:16:08.355Z,27.60
2018-05-21T14:18:35.866Z,27.60
2018-05-21T14:21:04.168Z,28.00
2018-05-21T14:23:31.739Z,28.00
2018-05-21T14:25:59.270Z,28.40
2018-05-21T14:28:27.537Z,28.60
2018-05-21T14:30:55.839Z,28.60
2018-05-21T14:33:23.356Z,28.60
2018-05-21T14:35:51.658Z,27.90
2018-05-21T14:38:19.178Z,27.90
2018-05-21T14:40:46.710Z,27.80
2018-05-21T14:43:14.218Z,27.40
2018-05-21T14:45:41.756Z,27.30
2018-05-21T14:48:10.044Z,27.30
2018-05-21T14:50:38.344Z,27.70
2018-05-21T14:53:05.855Z,27.60
2018-05-21T14:55:33.389Z,27.90
2018-05-21T14:58:00.903Z,27.60
2018-05-21T15:00:28.444Z,27.30
2018-05-21T15:02:55.958Z,26.90
2018-05-21T15:05:23.528Z,26.80
2018-05-21T15:07:51.039Z,26.90
2018-05-21T15:10:19.747Z,26.80
2018-05-21T15:12:47.264Z,26.60
2018-05-21T15:15:14.805Z,26.60
2018-05-21T15:17:43.082Z,27.10
2018-05-21T15:20:11.379Z,27.20
2018-05-21T15:22:38.904Z,27.20
2018-05-21T15:25:07.212Z,26.80
2018-05-21T15:27:34.718Z,26.80
2018-05-21T15:30:02.251Z,27.10
2018-05-21T15:32:29.761Z,27.80
2018-05-21T15:34:57.299Z,28.20
2018-05-21T15:37:25.579Z,28.30
2018-05-21T15:39:53.870Z,27.90
2018-05-21T15:42:21.377Z,27.90
2018-05-21T15:44:48.911Z,27.50
2018-05-21T15:47:16.419Z,27.90
2018-05-21T15:49:44.731Z,29.00
2018-05-21T15:52:12.262Z,29.00
2018-05-21T15:54:39.791Z,29.60
2018-05-21T15:57:08.066Z,30.40
2018-05-21T15:59:35.606Z,30.30
2018-05-21T16:02:03.109Z,30.40
2018-05-21T16:04:30.635Z,30.00
2018-05-21T16:06:58.906Z,29.00
2018-05-21T16:09:26.414Z,28.90
2018-05-21T16:11:53.941Z,28.60
2018-05-21T16:14:22.210Z,27.70
2018-05-21T16:16:49.754Z,27.70
2018-05-21T16:19:18.038Z,27.10
2018-05-21T16:21:46.338Z,27.10
2018-05-21T16:24:13.852Z,27.10
2018-05-21T16:26:41.387Z,27.30
2018-05-21T16:29:09.664Z,27.30
2018-05-21T16:31:37.210Z,27.20
2018-05-21T16:34:04.718Z,27.40
2018-05-21T16:36:32.249Z,27.40
2018-05-21T16:38:59.761Z,27.30
2018-05-21T16:41:27.316Z,27.40
2018-05-21T16:43:54.827Z,27.20
2018-05-21T16:46:23.122Z,27.30
2018-05-21T16:48:50.631Z,27.30
2018-05-21T16:51:18.161Z,27.20
2018-05-21T16:53:45.679Z,27.10
2018-05-21T16:56:13.222Z,27.20
2018-05-21T16:58:41.490Z,26.80
2018-05-21T17:01:09.022Z,26.80
2018-05-21T17:03:36.539Z,26.80
2018-05-21T17:06:04.069Z,26.60
2018-05-21T17:08:32.346Z,26.50
2018-05-21T17:11:00.641Z,27.20
2018-05-21T17:13:28.150Z,27.10
2018-05-21T17:15:55.772Z,27.80
2018-05-21T17:18:23.282Z,27.80
2018-05-21T17:20:51.586Z,27.20
2018-05-21T17:23:19.099Z,27.10
2018-05-21T17:25:46.629Z,26.90
2018-05-21T17:28:14.138Z,26.60
2018-05-21T17:30:42.450Z,26.30
2018-05-21T17:33:09.955Z,26.30
2018-05-21T17:35:38.388Z,25.90
2018-05-21T17:38:05.876Z,25.90
2018-05-21T17:40:33.441Z,25.90
2018-05-21T17:43:00.951Z,25.80
2018-05-21T17:45:28.491Z,25.70
2018-05-21T17:47:55.993Z,25.60
2018-05-21T17:50:23.521Z,25.50
2018-05-21T17:52:51.025Z,25.30
2018-05-21T17:55:19.327Z,25.30
2018-05-21T17:57:46.884Z,25.20
2018-05-21T18:00:14.379Z,24.90
2018-05-21T18:02:42.656Z,24.80
2018-05-21T18:05:10.186Z,24.90
2018-05-21T18:07:37.699Z,24.80
2018-05-21T18:10:05.239Z,24.90
2018-05-21T18:12:32.756Z,24.70
2018-05-21T18:15:00.286Z,24.80
2018-05-21T18:17:27.798Z,24.90
2018-05-21T18:19:55.302Z,24.90
2018-05-21T18:22:22.840Z,24.70
2018-05-21T18:24:51.115Z,24.50
2018-05-21T18:27:19.410Z,24.40
2018-05-21T18:29:46.926Z,24.40
2018-05-21T18:32:14.459Z,24.10
2018-05-21T18:34:41.992Z,23.90
2018-05-21T18:37:09.522Z,23.70
2018-05-21T18:39:37.034Z,23.70
2018-05-21T18:42:04.570Z,23.50
2018-05-21T18:44:32.087Z,23.30
2018-05-21T18:47:00.454Z,23.30
2018-05-21T18:49:28.732Z,23.50
2018-05-21T18:51:57.031Z,23.30
2018-05-21T18:54:24.542Z,23.40
2018-05-21T18:56:52.069Z,23.10
2018-05-21T18:59:19.577Z,23.20
2018-05-21T19:01:47.982Z,23.20
2018-05-21T19:04:15.498Z,23.20
2018-05-21T19:06:43.794Z,23.30
2018-05-21T19:09:11.297Z,23.30
2018-05-21T19:11:38.825Z,23.10
2018-05-21T19:14:06.338Z,23.00
2018-05-21T19:16:34.649Z,22.40
2018-05-21T19:19:02.154Z,22.40
2018-05-21T19:21:29.685Z,22.50
2018-05-21T19:23:57.199Z,22.40
2018-05-21T19:26:24.734Z,22.10
2018-05-21T19:28:52.246Z,22.30
2018-05-21T19:31:19.773Z,22.50
2018-05-21T19:33:47.287Z,22.10
2018-05-21T19:36:14.821Z,22.10
2018-05-21T19:38:42.322Z,21.90
2018-05-21T19:41:10.631Z,21.60
2018-05-21T19:43:38.143Z,21.60
2018-05-21T19:46:05.645Z,21.30
2018-05-21T19:48:33.169Z,21.30
2018-05-21T19:51:01.462Z,20.90
2018-05-21T19:53:29.008Z,20.90
2018-05-21T19:55:56.519Z,20.90
2018-05-21T19:58:24.047Z,20.90
2018-05-21T20:00:51.555Z,20.80
2018-05-21T20:03:19.867Z,20.60
2018-05-21T20:05:47.379Z,20.60
2018-05-21T20:08:15.677Z,20.70
2018-05-21T20:10:43.204Z,20.70
2018-05-21T20:13:10.729Z,20.70
2018-05-21T20:15:38.242Z,20.60
2018-05-21T20:18:06.535Z,20.50
2018-05-21T20:20:41.871Z,20.50
2018-05-21T20:23:09.428Z,20.50
2018-05-21T20:25:36.942Z,20.60
2018-05-21T20:28:04.465Z,20.40
2018-05-21T20:30:31.974Z,20.40
2018-05-21T20:33:00.265Z,20.30
2018-05-21T20:35:27.775Z,20.30
2018-05-21T20:37:55.338Z,20.10
2018-05-21T20:40:22.842Z,20.20
2018-05-21T20:42:50.411Z,20.20
2018-05-21T20:45:17.997Z,20.10
2018-05-21T20:47:45.497Z,20.10
2018-05-21T20:50:13.034Z,20.00
2018-05-21T20:52:41.313Z,19.90
2018-05-21T20:55:09.617Z,19.90
2018-05-21T20:57:37.131Z,19.90
2018-05-21T21:00:04.671Z,19.90
2018-05-21T21:02:32.189Z,19.90
2018-05-21T21:04:59.727Z,19.90
2018-05-21T21:07:27.281Z,19.90
2018-05-21T21:09:54.828Z,19.80
2018-05-21T21:12:23.106Z,19.80
2018-05-21T21:14:51.415Z,19.70
2018-05-21T21:17:18.927Z,19.70
2018-05-21T21:19:47.227Z,19.70
2018-05-21T21:22:14.747Z,19.70
2018-05-21T21:24:42.282Z,19.80
2018-05-21T21:27:09.793Z,19.80
2018-05-21T21:29:37.327Z,19.80
2018-05-21T21:32:05.610Z,19.80
2018-05-21T21:34:33.920Z,19.60
2018-05-21T21:37:01.427Z,19.60
2018-05-21T21:39:29.697Z,19.40
2018-05-21T21:41:57.235Z,19.40
2018-05-21T21:44:24.740Z,19.30
2018-05-21T21:46:52.275Z,19.20
2018-05-21T21:49:20.545Z,19.30
2018-05-21T21:51:48.843Z,19.20
2018-05-21T21:54:16.351Z,19.20
2018-05-21T21:56:43.882Z,19.20
2018-05-21T21:59:11.390Z,19.00
2018-05-21T22:01:39.682Z,18.90
2018-05-21T22:04:07.203Z,18.90
2018-05-21T22:06:34.729Z,19.10
2018-05-21T22:09:02.242Z,18.90
2018-05-21T22:11:30.539Z,18.80
2018-05-21T22:13:58.051Z,18.80
2018-05-21T22:16:25.583Z,18.70
2018-05-21T22:18:53.085Z,18.80
2018-05-21T22:21:21.386Z,18.60
2018-05-21T22:23:48.944Z,18.50
2018-05-21T22:26:17.207Z,18.50
2018-05-21T22:28:44.726Z,18.50
2018-05-21T22:31:12.231Z,18.50
2018-05-21T22:33:39.763Z,18.60
2018-05-21T22:36:07.276Z,18.50
2018-05-21T22:38:34.810Z,18.40
2018-05-21T22:41:02.318Z,18.40
2018-05-21T22:43:30.617Z,18.50
2018-05-21T22:45:58.152Z,18.50
2018-05-21T22:48:26.446Z,18.70
2018-05-21T22:50:53.954Z,18.70
2018-05-21T22:53:21.486Z,18.50
2018-05-21T22:55:48.993Z,18.40
2018-05-21T22:58:17.315Z,18.10
2018-05-21T23:00:44.828Z,18.10
2018-05-21T23:03:13.122Z,18.10
2018-05-21T23:05:40.694Z,18.10
2018-05-21T23:08:08.226Z,18.30
2018-05-21T23:10:35.741Z,18.40
2018-05-21T23:13:03.274Z,18.10
2018-05-21T23:15:30.856Z,18.00
2018-05-21T23:17:58.385Z,17.90
2018-05-21T23:20:25.891Z,17.70
2018-05-21T23:22:54.186Z,18.10
2018-05-21T23:25:21.690Z,18.10
2018-05-21T23:27:49.213Z,18.00
2018-05-21T23:30:16.726Z,17.80
2018-05-21T23:32:45.021Z,17.80
2018-05-21T23:35:12.531Z,17.80
2018-05-21T23:37:40.069Z,17.60
2018-05-21T23:40:07.570Z,17.40
2018-05-21T23:42:35.843Z,17.50
2018-05-21T23:45:03.392Z,17.40
2018-05-21T23:47:31.690Z,17.10
2018-05-21T23:49:59.229Z,17.10
2018-05-21T23:52:27.503Z,16.70
2018-05-21T23:54:55.819Z,16.80
2018-05-21T23:57:23.326Z,16.80
2018-05-21T23:59:50.849Z,16.80
